createdAt,value
2022-09-25T00:05:17.316Z,1013.84
2022-09-25T00:24:45.222Z,1013.62
2022-09-25T00:38:44.750Z,1013.33
2022-09-25T00:52:44.821Z,1013.23
2022-09-25T01:06:44.810Z,1013
2022-09-25T01:20:44.812Z,1012.97
2022-09-25T01:34:44.840Z,1012.8
2022-09-25T01:48:44.827Z,1012.81
2022-09-25T02:02:44.891Z,1012.48
2022-09-25T02:16:45.251Z,1012.47
2022-09-25T02:30:45.239Z,1012.24
2022-09-25T02:44:45.302Z,1012.15
2022-09-25T02:58:45.421Z,1012.02
2022-09-25T03:12:45.643Z,1011.82
2022-09-25T03:26:45.711Z,1011.81
2022-09-25T03:40:45.907Z,1011.78
2022-09-25T03:54:45.831Z,1011.79
2022-09-25T04:08:45.852Z,1011.64
2022-09-25T04:22:46.026Z,1011.95
2022-09-25T04:36:45.997Z,1012.06
2022-09-25T04:50:46.017Z,1011.7
2022-09-25T05:05:46.086Z,1011.56
2022-09-25T05:20:46.173Z,1011.36
2022-09-25T05:36:46.250Z,1011.44
2022-09-25T06:14:46.276Z,1011.69
2022-09-25T06:29:46.298Z,1011.61
2022-09-25T06:44:46.368Z,1011.49
2022-09-25T06:59:46.384Z,1011.64
2022-09-25T07:14:46.336Z,1011.52
2022-09-25T07:29:46.374Z,1011.48
2022-09-25T07:44:48.601Z,1011.62
2022-09-25T07:59:46.437Z,1011.81
2022-09-25T08:14:46.497Z,1011.97
2022-09-25T08:29:46.613Z,1011.92
2022-09-25T08:45:02.715Z,1011.81
2022-09-25T08:59:46.576Z,1011.88
2022-09-25T09:14:46.590Z,1011.78
2022-09-25T09:29:46.738Z,1011.85
2022-09-25T09:44:46.726Z,1011.79
2022-09-25T09:59:46.806Z,1011.91
2022-09-25T10:14:46.925Z,1011.79
2022-09-25T10:29:46.867Z,1011.59
2022-09-25T10:44:46.861Z,1011.55
2022-09-25T11:00:47.030Z,1011.44
2022-09-25T11:16:47.055Z,1011.37
2022-09-25T11:32:51.772Z,1011.26
2022-09-25T11:48:47.043Z,1011.34
2022-09-25T12:03:47.103Z,1011.31
2022-09-25T12:19:47.089Z,1011.27
2022-09-25T12:34:47.098Z,1011.27
2022-09-25T12:50:47.094Z,1011.17
2022-09-25T13:06:47.095Z,1011.01
2022-09-25T13:21:47.097Z,1010.82
2022-09-25T13:37:47.118Z,1010.93
2022-09-25T13:52:47.194Z,1010.76
2022-09-25T14:08:47.255Z,1010.65
2022-09-25T14:23:47.170Z,1010.43
2022-09-25T14:38:47.186Z,1010.39
2022-09-25T14:53:47.241Z,1010.23
2022-09-25T15:08:47.200Z,1010.17
2022-09-25T15:23:47.197Z,1010.07
2022-09-25T15:38:47.216Z,1010.05
2022-09-25T15:53:47.235Z,1009.88
2022-09-25T16:08:47.221Z,1009.82
2022-09-25T16:23:49.015Z,1009.94
2022-09-25T16:38:47.289Z,1010.06
2022-09-25T16:53:47.270Z,1010.03
2022-09-25T17:09:47.406Z,1010.05
2022-09-25T17:24:47.331Z,1010.24
2022-09-25T17:39:47.366Z,1010.31
2022-09-25T17:54:48.119Z,1010.32
2022-09-25T18:08:47.465Z,1010.3
2022-09-25T18:22:47.512Z,1010.49
2022-09-25T18:36:48.215Z,1010.65
2022-09-25T18:50:48.481Z,1010.69
2022-09-25T19:04:47.529Z,1010.6
2022-09-25T19:18:47.546Z,1010.39
2022-09-25T19:32:47.600Z,1010.28
2022-09-25T19:47:48.519Z,1010.29
2022-09-25T20:01:48.245Z,1010.33
2022-09-25T20:15:47.695Z,1010.41
2022-09-25T20:29:47.568Z,1010.15
2022-09-25T20:43:47.787Z,1010.19
2022-09-25T20:57:48.583Z,1010.14
2022-09-25T21:11:47.588Z,1010.17
2022-09-25T21:25:47.606Z,1010.12
2022-09-25T21:39:47.592Z,1010.17
2022-09-25T21:53:47.593Z,1010.03
2022-09-25T22:07:47.628Z,1009.84
2022-09-25T22:21:47.692Z,1009.77
2022-09-25T22:35:47.852Z,1009.77
2022-09-25T22:49:47.871Z,1009.64
2022-09-25T23:03:47.839Z,1009.55
2022-09-25T23:17:47.875Z,1009.53
2022-09-25T23:31:47.892Z,1009.54
2022-09-25T23:45:47.965Z,1009.51
2022-09-25T23:59:47.874Z,1009.36
